Time;durP1;ratioP1;P1;durP2;ratioP2;P2;SDS_P1;SDS_P2;PMS_P1;PMS_P2;Temp;Humidity;BMP_temperature;BMP_pressure;BME280_temperature;BME280_humidity;BME280_pressure;Samples;Min_cycle;Max_cycle;Signal;HPM_P1;HPM_P2
2021/12/13 00:01:33;;;;;;;;;;;24.00;49.90;;;;;;1558065;76;1939;-69
2021/12/13 00:03:36;;;;;;;;;;;24.00;49.90;;;;;;1550996;76;1020;-64
2021/12/13 00:05:43;;;;;;;;;;;24.00;49.90;;;;;;1547571;75;790;-69
2021/12/13 00:07:45;;;;;;;;;;;24.00;49.90;;;;;;1546377;76;1134;-70
2021/12/13 00:09:49;;;;;;;;;;;24.00;49.90;;;;;;1557550;76;815;-70
2021/12/13 00:11:52;;;;;;;;;;;24.00;49.90;;;;;;1555717;76;791;-69
2021/12/13 00:13:58;;;;;;;;;;;24.00;49.90;;;;;;1554996;75;795;-68
2021/12/13 00:16:02;;;;;;;;;;;24.00;49.90;;;;;;1558090;76;794;-69
2021/12/13 00:18:05;;;;;;;;;;;24.10;49.90;;;;;;1553635;76;1164;-70
2021/12/13 00:20:08;;;;;;;;;;;24.00;49.70;;;;;;1552361;76;792;-68
2021/12/13 00:22:13;;;;;;;;;;;24.10;49.90;;;;;;1556745;76;1919;-70
2021/12/13 00:24:23;;;;;;;;;;;24.00;49.70;;;;;;1557646;76;1815;-69
2021/12/13 00:26:29;;;;;;;;;;;24.00;49.70;;;;;;1543473;76;709;-68
2021/12/13 00:28:36;;;;;;;;;;;24.00;49.70;;;;;;1553103;76;1076;-69
2021/12/13 00:30:54;;;;;;;;;;;24.00;49.80;;;;;;1550625;76;679;-69
2021/12/13 00:33:04;;;;;;;;;;;24.00;49.70;;;;;;1548721;76;580;-71
2021/12/13 00:35:13;;;;;;;;;;;24.00;49.70;;;;;;1552231;76;1911;-68
2021/12/13 00:37:16;;;;;;;;;;;24.00;49.70;;;;;;1553188;75;1130;-69
2021/12/13 00:39:23;;;;;;;;;;;24.00;49.70;;;;;;1547023;76;800;-69
2021/12/13 00:41:26;;;;;;;;;;;24.00;49.60;;;;;;1551859;76;1943;-69
2021/12/13 00:43:29;;;;;;;;;;;24.00;49.60;;;;;;1556044;76;734;-70
2021/12/13 00:45:31;;;;;;;;;;;23.90;49.70;;;;;;1544226;76;728;-69
2021/12/13 00:47:34;;;;;;;;;;;23.90;49.60;;;;;;1518273;76;1172;-70
2021/12/13 00:49:36;;;;;;;;;;;24.00;49.50;;;;;;1547320;76;718;-71
2021/12/13 00:51:39;;;;;;;;;;;23.90;49.60;;;;;;1552771;76;824;-70
2021/12/13 00:53:42;;;;;;;;;;;23.90;49.50;;;;;;1552772;76;1901;-69
2021/12/13 00:55:44;;;;;;;;;;;23.90;49.60;;;;;;1541763;75;776;-69
2021/12/13 00:57:48;;;;;;;;;;;23.90;49.60;;;;;;1561423;76;1156;-71
2021/12/13 00:59:51;;;;;;;;;;;24.00;49.70;;;;;;1553995;76;1020;-69
2021/12/13 01:01:58;;;;;;;;;;;24.00;49.60;;;;;;1555118;76;1946;-69
2021/12/13 01:03:59;;;;;;;;;;;23.90;49.60;;;;;;1547776;75;688;-68
2021/12/13 01:06:12;;;;;;;;;;;23.90;49.70;;;;;;1543499;76;783;-69
2021/12/13 01:08:32;;;;;;;;;;;23.90;49.60;;;;;;1558750;76;1125;-69
2021/12/13 01:10:39;;;;;;;;;;;23.90;49.60;;;;;;1544132;75;690;-67
2021/12/13 01:12:41;;;;;;;;;;;23.90;49.70;;;;;;1538179;76;684;-67
2021/12/13 01:14:57;;;;;;;;;;;23.80;49.60;;;;;;1558063;76;814;-69
2021/12/13 01:17:02;;;;;;;;;;;23.80;49.60;;;;;;1553860;76;1592;-69
2021/12/13 01:19:23;;;;;;;;;;;23.80;49.60;;;;;;1551797;75;1656;-68
2021/12/13 01:21:15;;;;;;;;;;;23.80;49.70;;;;;;1539093;76;1428;-70
2021/12/13 01:23:16;;;;;;;;;;;23.90;49.70;;;;;;1543925;76;1924;-70
2021/12/13 01:26:26;;;;;;;;;;;23.80;49.70;;;;;;1549911;76;1474;-69
2021/12/13 01:27:41;;;;;;;;;;;23.90;49.80;;;;;;1536452;76;1400;-70
2021/12/13 01:29:43;;;;;;;;;;;23.80;49.70;;;;;;1546481;76;763;-69
2021/12/13 01:31:46;;;;;;;;;;;23.90;49.80;;;;;;1552271;76;1051;-69
2021/12/13 01:33:48;;;;;;;;;;;23.80;49.80;;;;;;1553986;75;805;-69
2021/12/13 01:35:51;;;;;;;;;;;23.80;49.90;;;;;;1551587;76;784;-68
2021/12/13 01:37:54;;;;;;;;;;;23.80;49.90;;;;;;1558190;76;1186;-70
2021/12/13 01:39:57;;;;;;;;;;;23.80;50.00;;;;;;1554704;76;952;-68
2021/12/13 01:42:07;;;;;;;;;;;23.80;49.90;;;;;;1544918;76;1928;-69
2021/12/13 01:44:11;;;;;;;;;;;23.80;49.90;;;;;;1550474;76;738;-68
2021/12/13 01:46:12;;;;;;;;;;;23.90;50.00;;;;;;1550847;76;717;-68
2021/12/13 01:48:22;;;;;;;;;;;23.80;49.90;;;;;;1545240;76;1143;-68
2021/12/13 01:50:28;;;;;;;;;;;23.80;49.90;;;;;;1550079;76;724;-68
2021/12/13 01:52:30;;;;;;;;;;;23.80;49.90;;;;;;1557258;76;1512;-69
2021/12/13 01:54:32;;;;;;;;;;;23.80;50.00;;;;;;1558211;76;718;-68
2021/12/13 01:58:43;;;;;;;;;;;23.90;50.10;;;;;;1538632;76;1119;-68
2021/12/13 02:03:06;;;;;;;;;;;23.90;50.10;;;;;;1557951;76;1876;-68
2021/12/13 02:05:09;;;;;;;;;;;23.90;50.20;;;;;;1556773;76;817;-67
2021/12/13 02:07:11;;;;;;;;;;;23.80;50.10;;;;;;1558112;76;1137;-68
2021/12/13 02:09:14;;;;;;;;;;;23.80;50.10;;;;;;1550836;76;699;-69
2021/12/13 02:11:16;;;;;;;;;;;23.80;50.00;;;;;;1555352;76;721;-69
2021/12/13 02:13:22;;;;;;;;;;;23.80;50.00;;;;;;1557952;76;801;-70
2021/12/13 02:17:44;;;;;;;;;;;23.80;49.90;;;;;;1543864;75;1713;-69
2021/12/13 02:19:54;;;;;;;;;;;23.90;50.00;;;;;;1541834;76;815;-69
2021/12/13 02:21:57;;;;;;;;;;;23.90;50.00;;;;;;1548664;76;1931;-69
2021/12/13 02:24:00;;;;;;;;;;;23.90;50.00;;;;;;1552564;76;746;-69
2021/12/13 02:26:02;;;;;;;;;;;23.80;50.00;;;;;;1557083;76;764;-69
2021/12/13 02:28:09;;;;;;;;;;;23.80;49.90;;;;;;1545558;76;1172;-69
2021/12/13 02:30:12;;;;;;;;;;;23.90;50.00;;;;;;1557026;76;1951;-68
2021/12/13 02:32:14;;;;;;;;;;;23.80;49.90;;;;;;1549032;76;806;-70
2021/12/13 02:34:17;;;;;;;;;;;23.90;50.00;;;;;;1539849;76;730;-70
2021/12/13 02:36:20;;;;;;;;;;;23.90;50.00;;;;;;1554431;76;790;-72
2021/12/13 02:38:23;;;;;;;;;;;23.80;50.00;;;;;;1590404;70;219903;-69
2021/12/13 02:40:25;;;;;;;;;;;23.80;50.00;;;;;;1634413;72;722;-66
2021/12/13 02:42:27;;;;;;;;;;;23.90;50.00;;;;;;1627755;72;1941;-67
2021/12/13 02:44:31;;;;;;;;;;;23.90;50.00;;;;;;1636091;72;726;-66
2021/12/13 02:46:33;;;;;;;;;;;23.80;49.90;;;;;;1634167;71;1766;-65
2021/12/13 02:48:39;;;;;;;;;;;23.90;50.00;;;;;;1632310;71;1134;-68
2021/12/13 02:50:46;;;;;;;;;;;23.90;49.90;;;;;;1632786;72;756;-66
2021/12/13 02:52:48;;;;;;;;;;;23.90;49.90;;;;;;1637244;71;787;-68
2021/12/13 02:54:51;;;;;;;;;;;23.80;49.80;;;;;;1619062;72;947;-67
2021/12/13 02:56:57;;;;;;;;;;;23.90;49.90;;;;;;1627128;71;1788;-71
2021/12/13 02:58:59;;;;;;;;;;;23.90;49.90;;;;;;1619096;72;1144;-67
2021/12/13 03:01:03;;;;;;;;;;;23.90;49.90;;;;;;1635222;72;770;-66
2021/12/13 03:03:06;;;;;;;;;;;23.80;49.80;;;;;;1625785;72;1951;-66
2021/12/13 03:05:11;;;;;;;;;;;23.90;49.90;;;;;;1628010;72;762;-66
2021/12/13 03:07:17;;;;;;;;;;;23.90;49.90;;;;;;1627439;71;1153;-65
2021/12/13 03:09:20;;;;;;;;;;;23.90;49.90;;;;;;1636309;72;694;-64
2021/12/13 03:11:24;;;;;;;;;;;23.80;49.80;;;;;;1636039;72;804;-65
2021/12/13 03:13:26;;;;;;;;;;;23.80;49.80;;;;;;1628804;72;1390;-65
2021/12/13 03:15:29;;;;;;;;;;;23.90;49.90;;;;;;1634846;72;802;-66
2021/12/13 03:17:32;;;;;;;;;;;23.80;49.80;;;;;;1630595;72;1148;-66
2021/12/13 03:19:44;;;;;;;;;;;23.90;49.90;;;;;;1631653;72;741;-66
2021/12/13 03:21:48;;;;;;;;;;;23.80;49.80;;;;;;1630007;72;688;-67
2021/12/13 03:23:51;;;;;;;;;;;23.90;49.90;;;;;;1633147;72;1970;-65
2021/12/13 03:25:55;;;;;;;;;;;23.80;49.80;;;;;;1610748;72;1113;-69
2021/12/13 03:27:58;;;;;;;;;;;23.80;49.90;;;;;;1634900;72;2007;-66
2021/12/13 03:30:08;;;;;;;;;;;23.80;49.90;;;;;;1634673;72;1839;-66
2021/12/13 03:32:13;;;;;;;;;;;23.90;50.00;;;;;;1633715;72;679;-66
2021/12/13 03:34:22;;;;;;;;;;;23.90;49.90;;;;;;1636051;72;787;-66
2021/12/13 03:36:25;;;;;;;;;;;23.90;49.90;;;;;;1630741;72;675;-67
2021/12/13 03:38:29;;;;;;;;;;;23.90;49.80;;;;;;1631313;71;1846;-66
2021/12/13 03:40:31;;;;;;;;;;;23.90;49.70;;;;;;1634462;72;1951;-66
2021/12/13 03:42:34;;;;;;;;;;;23.90;49.80;;;;;;1632485;72;1939;-68
2021/12/13 03:44:37;;;;;;;;;;;23.90;49.80;;;;;;1626922;71;733;-66
2021/12/13 03:46:39;;;;;;;;;;;23.90;49.90;;;;;;1635951;71;719;-69
2021/12/13 03:48:43;;;;;;;;;;;23.90;49.90;;;;;;1627627;71;1112;-69
2021/12/13 03:50:46;;;;;;;;;;;23.90;49.90;;;;;;1630468;71;1951;-66
2021/12/13 03:52:49;;;;;;;;;;;23.90;49.90;;;;;;1634192;71;926;-65
2021/12/13 03:54:52;;;;;;;;;;;23.90;49.90;;;;;;1636049;72;777;-65
2021/12/13 03:56:54;;;;;;;;;;;24.00;50.00;;;;;;1631562;72;670;-67
2021/12/13 03:59:06;;;;;;;;;;;24.00;50.00;;;;;;1620709;72;1090;-68
2021/12/13 04:01:18;;;;;;;;;;;23.90;49.80;;;;;;1623023;71;719;-66
2021/12/13 04:03:20;;;;;;;;;;;23.90;49.80;;;;;;1626628;71;2034;-66
2021/12/13 04:05:23;;;;;;;;;;;23.90;49.70;;;;;;1628224;72;690;-66
2021/12/13 04:07:32;;;;;;;;;;;23.80;49.80;;;;;;1622384;71;1097;-66
2021/12/13 04:09:34;;;;;;;;;;;23.90;49.80;;;;;;1628052;72;719;-66
2021/12/13 04:11:36;;;;;;;;;;;23.80;49.80;;;;;;1632410;72;776;-66
2021/12/13 04:13:39;;;;;;;;;;;23.70;49.90;;;;;;1630551;71;800;-67
2021/12/13 04:16:08;;;;;;;;;;;23.70;50.00;;;;;;1622351;72;766;-67
2021/12/13 04:18:29;;;;;;;;;;;23.60;49.90;;;;;;1628300;71;1610;-67
2021/12/13 04:20:20;;;;;;;;;;;23.60;50.10;;;;;;1624763;72;1630;-67
2021/12/13 04:22:23;;;;;;;;;;;23.50;50.20;;;;;;1632305;72;1945;-67
2021/12/13 04:24:33;;;;;;;;;;;23.50;50.30;;;;;;1636009;72;700;-67
2021/12/13 04:26:39;;;;;;;;;;;23.60;50.40;;;;;;1626023;72;1001;-66
2021/12/13 04:28:43;;;;;;;;;;;23.60;50.40;;;;;;1624650;72;1619;-64
2021/12/13 04:30:49;;;;;;;;;;;23.50;50.40;;;;;;1633422;72;743;-66
2021/12/13 04:32:52;;;;;;;;;;;23.50;50.60;;;;;;1635817;72;743;-66
2021/12/13 04:34:55;;;;;;;;;;;23.50;50.60;;;;;;1624523;72;730;-66
2021/12/13 04:36:57;;;;;;;;;;;23.50;50.60;;;;;;1628568;72;783;-66
2021/12/13 04:39:00;;;;;;;;;;;23.50;50.50;;;;;;1624870;71;1140;-66
2021/12/13 04:41:02;;;;;;;;;;;23.50;50.50;;;;;;1621753;72;766;-67
2021/12/13 04:43:06;;;;;;;;;;;23.50;50.60;;;;;;1627696;72;1938;-65
2021/12/13 04:45:09;;;;;;;;;;;23.60;50.60;;;;;;1630718;72;995;-65
2021/12/13 04:47:12;;;;;;;;;;;23.70;50.40;;;;;;1628986;71;756;-66
2021/12/13 04:49:15;;;;;;;;;;;23.90;50.10;;;;;;1623775;71;1116;-66
2021/12/13 04:51:17;;;;;;;;;;;23.90;49.80;;;;;;1629493;72;813;-68
2021/12/13 04:53:26;;;;;;;;;;;24.10;49.70;;;;;;1625164;72;755;-66
2021/12/13 04:55:29;;;;;;;;;;;24.00;49.40;;;;;;1616437;71;767;-65
2021/12/13 04:57:31;;;;;;;;;;;24.10;49.40;;;;;;1624431;71;1103;-67
2021/12/13 04:59:33;;;;;;;;;;;24.00;49.20;;;;;;1636614;71;820;-65
2021/12/13 05:01:35;;;;;;;;;;;24.10;49.30;;;;;;1630450;72;777;-68
2021/12/13 05:03:39;;;;;;;;;;;24.10;49.30;;;;;;1622641;72;1940;-64
2021/12/13 05:05:41;;;;;;;;;;;24.10;49.20;;;;;;1631785;72;712;-64
2021/12/13 05:07:43;;;;;;;;;;;24.20;49.20;;;;;;1625907;72;1126;-65
2021/12/13 05:09:46;;;;;;;;;;;24.00;49.20;;;;;;1635238;71;790;-65
2021/12/13 05:11:53;;;;;;;;;;;24.10;49.20;;;;;;1627492;72;798;-68
2021/12/13 05:13:55;;;;;;;;;;;24.20;49.20;;;;;;1624614;72;777;-64
2021/12/13 05:16:01;;;;;;;;;;;24.10;49.10;;;;;;1618746;72;677;-65
2021/12/13 05:18:04;;;;;;;;;;;24.00;49.10;;;;;;1629889;71;1146;-66
2021/12/13 05:20:14;;;;;;;;;;;24.00;49.20;;;;;;1635608;72;763;-66
2021/12/13 05:22:16;;;;;;;;;;;24.00;49.40;;;;;;1620769;72;717;-66
2021/12/13 05:24:22;;;;;;;;;;;24.00;49.30;;;;;;1626676;72;1928;-66
2021/12/13 05:26:40;;;;;;;;;;;24.20;49.30;;;;;;1616243;72;860;-65
2021/12/13 05:28:49;;;;;;;;;;;24.10;49.20;;;;;;1513474;78;1137;-66
2021/12/13 05:30:57;;;;;;;;;;;24.20;49.10;;;;;;1557579;72;1499;-66
2021/12/13 05:32:59;;;;;;;;;;;24.20;49.00;;;;;;1636108;71;1668;-66
2021/12/13 05:35:08;;;;;;;;;;;24.20;49.00;;;;;;1628139;71;2060;-66
2021/12/13 05:37:07;;;;;;;;;;;24.30;49.00;;;;;;1625936;72;1476;-66
2021/12/13 05:39:10;;;;;;;;;;;24.30;49.10;;;;;;1635723;72;1071;-67
2021/12/13 05:41:15;;;;;;;;;;;24.20;49.00;;;;;;1625882;72;710;-68
2021/12/13 05:43:24;;;;;;;;;;;24.20;48.90;;;;;;1632348;72;1958;-66
2021/12/13 05:45:37;;;;;;;;;;;24.30;48.90;;;;;;1628504;71;698;-66
2021/12/13 05:47:38;;;;;;;;;;;24.30;48.80;;;;;;1624759;71;1876;-66
2021/12/13 05:49:44;;;;;;;;;;;24.40;48.70;;;;;;1621977;72;754;-68
2021/12/13 05:51:47;;;;;;;;;;;24.30;48.80;;;;;;1633336;71;1219;-66
2021/12/13 05:53:51;;;;;;;;;;;24.30;49.00;;;;;;1631679;72;733;-68
2021/12/13 05:55:54;;;;;;;;;;;24.20;48.90;;;;;;1633786;72;796;-66
2021/12/13 05:57:56;;;;;;;;;;;24.30;49.00;;;;;;1636079;71;1156;-65
2021/12/13 06:00:00;;;;;;;;;;;24.20;49.00;;;;;;1628888;72;809;-64
2021/12/13 06:02:15;;;;;;;;;;;24.00;49.10;;;;;;1635125;72;1104;-65
2021/12/13 06:04:35;;;;;;;;;;;24.00;49.20;;;;;;1633844;72;1925;-65
2021/12/13 06:06:42;;;;;;;;;;;24.00;49.20;;;;;;1633592;71;720;-63
2021/12/13 06:08:48;;;;;;;;;;;24.00;49.30;;;;;;1627960;71;2040;-65
2021/12/13 06:10:52;;;;;;;;;;;24.00;49.20;;;;;;1632614;72;1852;-64
2021/12/13 06:12:55;;;;;;;;;;;24.00;49.40;;;;;;1638362;71;661;-67
2021/12/13 06:14:56;;;;;;;;;;;24.00;49.50;;;;;;1635097;72;835;-61
2021/12/13 06:17:06;;;;;;;;;;;24.00;49.40;;;;;;1634782;72;689;-64
2021/12/13 06:19:19;;;;;;;;;;;24.20;49.20;;;;;;1631883;71;1187;-64
2021/12/13 06:21:39;;;;;;;;;;;24.30;49.00;;;;;;1635165;71;2008;-64
2021/12/13 06:23:41;;;;;;;;;;;24.30;48.90;;;;;;1636951;72;1931;-64
2021/12/13 06:25:43;;;;;;;;;;;24.30;48.90;;;;;;1635237;72;775;-61
2021/12/13 06:27:46;;;;;;;;;;;24.30;48.90;;;;;;1616700;72;1122;-66
2021/12/13 06:29:52;;;;;;;;;;;24.20;48.70;;;;;;1623180;71;766;-63
2021/12/13 06:31:54;;;;;;;;;;;24.30;48.70;;;;;;1635244;72;731;-63
2021/12/13 06:33:57;;;;;;;;;;;24.20;48.60;;;;;;1635840;72;768;-63
2021/12/13 06:36:00;;;;;;;;;;;24.30;48.90;;;;;;1619810;72;766;-63
2021/12/13 06:38:03;;;;;;;;;;;24.20;48.80;;;;;;1634182;72;1113;-63
2021/12/13 06:40:12;;;;;;;;;;;24.20;48.70;;;;;;1622154;72;1882;-65
2021/12/13 06:42:14;;;;;;;;;;;24.20;48.80;;;;;;1634112;72;703;-62
2021/12/13 06:44:18;;;;;;;;;;;24.20;48.80;;;;;;1632018;72;1907;-66
2021/12/13 06:46:24;;;;;;;;;;;24.20;48.90;;;;;;1638990;71;780;-62
2021/12/13 06:48:37;;;;;;;;;;;24.20;48.90;;;;;;1628720;71;1243;-62
2021/12/13 06:50:39;;;;;;;;;;;24.20;48.90;;;;;;1633666;72;2280;-63
2021/12/13 06:52:41;;;;;;;;;;;24.20;48.90;;;;;;1634539;72;778;-63
2021/12/13 06:54:43;;;;;;;;;;;24.20;48.90;;;;;;1628588;71;770;-61
2021/12/13 06:56:46;;;;;;;;;;;24.10;48.70;;;;;;1614895;71;795;-62
2021/12/13 06:58:52;;;;;;;;;;;24.20;48.60;;;;;;1626638;71;1116;-62
2021/12/13 07:00:55;;;;;;;;;;;24.20;48.60;;;;;;1633502;71;783;-62
2021/12/13 07:03:00;;;;;;;;;;;24.20;48.60;;;;;;1633324;71;710;-62
2021/12/13 07:05:10;;;;;;;;;;;24.20;48.60;;;;;;1628265;71;1919;-62
2021/12/13 07:07:12;;;;;;;;;;;24.20;48.50;;;;;;1628771;71;803;-63
2021/12/13 07:09:21;;;;;;;;;;;24.10;48.50;;;;;;1633359;71;1147;-63
2021/12/13 07:11:23;;;;;;;;;;;24.20;48.50;;;;;;1622776;71;734;-61
2021/12/13 07:13:32;;;;;;;;;;;24.10;48.40;;;;;;1635596;72;923;-62
2021/12/13 07:15:36;;;;;;;;;;;24.10;48.40;;;;;;1626749;72;724;-62
2021/12/13 07:17:37;;;;;;;;;;;24.20;48.40;;;;;;1622617;71;1101;-62
2021/12/13 07:19:40;;;;;;;;;;;24.10;48.40;;;;;;1633860;71;802;-68
2021/12/13 07:21:49;;;;;;;;;;;24.10;48.40;;;;;;1631464;71;753;-63
2021/12/13 07:24:02;;;;;;;;;;;24.10;48.40;;;;;;1627179;71;1935;-63
2021/12/13 07:26:02;;;;;;;;;;;24.20;48.30;;;;;;1627872;71;1682;-62
2021/12/13 07:28:04;;;;;;;;;;;24.10;48.30;;;;;;1630575;72;1150;-62
2021/12/13 07:30:07;;;;;;;;;;;24.10;48.20;;;;;;1626469;72;783;-63
2021/12/13 07:32:14;;;;;;;;;;;24.20;48.20;;;;;;1636007;72;760;-62
2021/12/13 07:34:17;;;;;;;;;;;24.10;48.30;;;;;;1634876;71;831;-62
2021/12/13 07:36:23;;;;;;;;;;;24.20;48.30;;;;;;1631174;71;662;-62
2021/12/13 07:38:28;;;;;;;;;;;24.20;48.30;;;;;;1626899;71;1182;-63
2021/12/13 07:40:32;;;;;;;;;;;24.10;48.30;;;;;;1636265;71;936;-63
2021/12/13 07:42:33;;;;;;;;;;;24.10;48.20;;;;;;1629700;71;730;-65
2021/12/13 07:44:39;;;;;;;;;;;24.10;48.20;;;;;;1626858;72;1940;-63
2021/12/13 07:46:41;;;;;;;;;;;24.20;48.20;;;;;;1632533;72;1061;-63
2021/12/13 07:48:44;;;;;;;;;;;24.10;48.20;;;;;;1616051;71;1149;-63
2021/12/13 07:50:57;;;;;;;;;;;24.10;48.10;;;;;;1628395;71;775;-64
2021/12/13 07:52:59;;;;;;;;;;;24.10;48.10;;;;;;1592087;73;1138;-62
2021/12/13 07:55:09;;;;;;;;;;;24.20;48.10;;;;;;1632602;72;746;-63
2021/12/13 07:57:18;;;;;;;;;;;24.20;48.10;;;;;;1616326;71;994;-63
2021/12/13 07:59:24;;;;;;;;;;;24.10;48.10;;;;;;1629140;72;1814;-63
2021/12/13 08:01:27;;;;;;;;;;;24.20;48.10;;;;;;1635214;71;799;-62
2021/12/13 08:03:29;;;;;;;;;;;24.10;48.10;;;;;;1633633;72;727;-63
2021/12/13 08:05:33;;;;;;;;;;;24.10;48.10;;;;;;1625033;71;1913;-62
2021/12/13 08:07:42;;;;;;;;;;;24.20;48.10;;;;;;1634994;71;1126;-63
2021/12/13 08:09:46;;;;;;;;;;;24.10;48.10;;;;;;1630407;72;763;-62
2021/12/13 08:11:49;;;;;;;;;;;24.10;48.10;;;;;;1628618;71;726;-66
2021/12/13 08:13:58;;;;;;;;;;;24.10;48.00;;;;;;1632403;71;769;-62
2021/12/13 08:16:01;;;;;;;;;;;24.10;48.10;;;;;;1640152;71;733;-65
2021/12/13 08:18:07;;;;;;;;;;;24.20;48.00;;;;;;1631189;71;1182;-63
2021/12/13 08:20:10;;;;;;;;;;;24.20;48.00;;;;;;1636540;71;802;-63
2021/12/13 08:22:13;;;;;;;;;;;24.10;48.00;;;;;;1632402;73;698;-63
2021/12/13 08:24:19;;;;;;;;;;;24.10;48.00;;;;;;1629401;72;1926;-63
2021/12/13 08:26:25;;;;;;;;;;;24.20;48.00;;;;;;1633752;72;722;-63
2021/12/13 08:28:32;;;;;;;;;;;24.20;47.90;;;;;;1612303;72;1823;-62
2021/12/13 08:30:45;;;;;;;;;;;24.20;47.90;;;;;;1631585;72;1818;-63
2021/12/13 08:33:00;;;;;;;;;;;24.20;47.80;;;;;;1631991;72;747;-63
2021/12/13 08:35:03;;;;;;;;;;;24.10;47.90;;;;;;1635964;71;737;-60
2021/12/13 08:37:19;;;;;;;;;;;24.20;48.00;;;;;;1631647;72;662;-65
2021/12/13 08:39:22;;;;;;;;;;;24.20;47.90;;;;;;1634833;70;2116;-70
2021/12/13 08:41:41;;;;;;;;;;;24.10;47.90;;;;;;1635118;72;734;-70
2021/12/13 08:43:44;;;;;;;;;;;24.20;47.90;;;;;;1620864;71;738;-70
2021/12/13 08:45:48;;;;;;;;;;;24.10;48.10;;;;;;1625105;71;808;-72
2021/12/13 08:47:51;;;;;;;;;;;24.10;48.10;;;;;;1586528;72;1251;-71
2021/12/13 08:49:54;;;;;;;;;;;24.00;48.10;;;;;;1620213;71;755;-71
2021/12/13 08:51:58;;;;;;;;;;;24.00;48.30;;;;;;1603162;73;1041;-73
2021/12/13 08:54:01;;;;;;;;;;;24.00;48.40;;;;;;1627436;73;789;-70
2021/12/13 08:56:05;;;;;;;;;;;23.90;48.50;;;;;;1625883;73;673;-69
2021/12/13 08:58:15;;;;;;;;;;;24.00;48.60;;;;;;1611019;71;1806;-70
2021/12/13 09:00:16;;;;;;;;;;;24.00;48.70;;;;;;1625558;73;1558;-70
2021/12/13 09:02:18;;;;;;;;;;;23.80;48.70;;;;;;1627584;71;709;-70
2021/12/13 09:04:22;;;;;;;;;;;23.90;48.90;;;;;;1627702;73;1939;-69
2021/12/13 09:06:30;;;;;;;;;;;23.80;48.90;;;;;;1625432;71;1033;-67
2021/12/13 09:08:46;;;;;;;;;;;23.90;49.10;;;;;;1623034;73;1132;-69
2021/12/13 09:10:50;;;;;;;;;;;23.80;49.00;;;;;;1610426;73;779;-70
2021/12/13 09:12:54;;;;;;;;;;;23.80;49.00;;;;;;1622329;73;766;-70
2021/12/13 09:14:57;;;;;;;;;;;23.80;49.00;;;;;;1616456;73;1128;-71
2021/12/13 09:17:16;;;;;;;;;;;23.90;49.20;;;;;;1619111;73;806;-72
2021/12/13 09:19:20;;;;;;;;;;;23.80;49.20;;;;;;1622549;73;1228;-71
2021/12/13 09:21:22;;;;;;;;;;;23.80;49.20;;;;;;1627894;71;745;-68
2021/12/13 09:23:26;;;;;;;;;;;23.80;49.10;;;;;;1628618;73;753;-70
2021/12/13 09:25:38;;;;;;;;;;;23.80;49.20;;;;;;1617362;73;1929;-71
2021/12/13 09:27:51;;;;;;;;;;;23.80;49.30;;;;;;1623024;73;746;-72
2021/12/13 09:29:57;;;;;;;;;;;23.80;49.30;;;;;;1613039;73;1092;-71
2021/12/13 09:32:00;;;;;;;;;;;23.80;49.30;;;;;;1617751;73;1011;-71
2021/12/13 09:34:14;;;;;;;;;;;23.80;49.20;;;;;;1622222;73;743;-71
2021/12/13 09:36:20;;;;;;;;;;;23.80;49.20;;;;;;1617985;73;767;-70
2021/12/13 09:38:24;;;;;;;;;;;23.90;49.10;;;;;;1626278;73;1843;-70
2021/12/13 09:40:27;;;;;;;;;;;23.90;48.90;;;;;;1610740;73;715;-70
2021/12/13 09:42:29;;;;;;;;;;;24.10;48.80;;;;;;1623989;73;1020;-70
2021/12/13 09:44:33;;;;;;;;;;;24.10;48.60;;;;;;1619866;73;1947;-70
2021/12/13 09:46:53;;;;;;;;;;;24.20;48.40;;;;;;1628586;73;792;-71
2021/12/13 09:48:56;;;;;;;;;;;24.20;48.20;;;;;;1620388;72;1150;-69
2021/12/13 09:51:00;;;;;;;;;;;24.30;48.20;;;;;;1617653;73;769;-71
2021/12/13 09:53:06;;;;;;;;;;;24.30;48.10;;;;;;1621132;73;674;-71
2021/12/13 09:55:10;;;;;;;;;;;24.40;48.00;;;;;;1599687;71;775;-73
2021/12/13 09:57:12;;;;;;;;;;;24.40;47.90;;;;;;1611084;73;1545;-70
2021/12/13 09:59:25;;;;;;;;;;;24.40;47.80;;;;;;1618508;71;1173;-71
2021/12/13 10:01:28;;;;;;;;;;;24.50;47.90;;;;;;1613959;73;692;-71
2021/12/13 10:03:31;;;;;;;;;;;24.40;48.10;;;;;;1612889;73;1815;-70
2021/12/13 10:05:35;;;;;;;;;;;24.20;48.40;;;;;;1618865;73;1948;-71
2021/12/13 10:07:37;;;;;;;;;;;24.10;48.60;;;;;;1626337;71;1851;-71
2021/12/13 10:09:41;;;;;;;;;;;24.10;48.90;;;;;;1614173;72;1017;-74
2021/12/13 10:11:44;;;;;;;;;;;24.10;49.00;;;;;;1626011;73;2218;-70
2021/12/13 10:13:46;;;;;;;;;;;24.10;49.10;;;;;;1611175;73;789;-68
2021/12/13 10:15:50;;;;;;;;;;;24.20;49.00;;;;;;1617233;73;711;-67
2021/12/13 10:17:53;;;;;;;;;;;24.30;48.60;;;;;;1614179;73;1149;-68
2021/12/13 10:19:56;;;;;;;;;;;24.40;48.30;;;;;;1623488;73;724;-67
2021/12/13 10:21:58;;;;;;;;;;;24.50;48.10;;;;;;1618712;73;781;-68
2021/12/13 10:24:01;;;;;;;;;;;24.50;48.00;;;;;;1621945;73;767;-71
2021/12/13 10:26:05;;;;;;;;;;;24.50;47.90;;;;;;1616476;71;1964;-71
2021/12/13 10:28:08;;;;;;;;;;;24.50;47.80;;;;;;1615773;73;1189;-68
2021/12/13 10:30:12;;;;;;;;;;;24.40;47.80;;;;;;1619583;73;662;-69
2021/12/13 10:32:16;;;;;;;;;;;24.40;47.70;;;;;;1619605;71;762;-68
2021/12/13 10:34:19;;;;;;;;;;;24.40;47.70;;;;;;1614397;73;1641;-67
2021/12/13 10:36:21;;;;;;;;;;;24.40;47.70;;;;;;1621150;73;773;-70
2021/12/13 10:38:24;;;;;;;;;;;24.40;47.70;;;;;;1627834;73;1162;-68
2021/12/13 10:40:28;;;;;;;;;;;24.40;47.60;;;;;;1619527;73;1803;-67
2021/12/13 10:42:37;;;;;;;;;;;24.40;47.60;;;;;;1625017;71;789;-67
2021/12/13 10:44:44;;;;;;;;;;;24.40;47.60;;;;;;1627925;73;1926;-67
2021/12/13 10:46:44;;;;;;;;;;;24.30;47.60;;;;;;1620415;73;1471;-68
2021/12/13 10:48:47;;;;;;;;;;;24.30;47.60;;;;;;1620154;73;1153;-68
2021/12/13 10:50:50;;;;;;;;;;;24.30;47.60;;;;;;1615065;73;820;-67
2021/12/13 10:52:53;;;;;;;;;;;24.30;47.60;;;;;;1621096;71;798;-68
2021/12/13 10:54:56;;;;;;;;;;;24.40;47.60;;;;;;1612763;73;782;-70
2021/12/13 10:57:02;;;;;;;;;;;24.40;47.60;;;;;;1617911;73;832;-66
2021/12/13 10:59:06;;;;;;;;;;;24.30;47.60;;;;;;1621011;71;1126;-67
2021/12/13 11:01:09;;;;;;;;;;;24.40;47.60;;;;;;1624716;73;783;-66
2021/12/13 11:03:12;;;;;;;;;;;24.30;47.60;;;;;;1626193;73;732;-67
2021/12/13 11:05:15;;;;;;;;;;;24.30;47.60;;;;;;1624315;73;1951;-66
2021/12/13 11:07:17;;;;;;;;;;;24.30;47.60;;;;;;1626208;73;856;-67
2021/12/13 11:09:21;;;;;;;;;;;24.40;47.60;;;;;;1614377;71;1143;-67
2021/12/13 11:11:29;;;;;;;;;;;24.30;47.60;;;;;;1618434;73;688;-65
2021/12/13 11:13:32;;;;;;;;;;;24.30;47.60;;;;;;1626256;73;706;-67
2021/12/13 11:15:36;;;;;;;;;;;24.40;47.60;;;;;;1622029;73;739;-66
2021/12/13 11:17:39;;;;;;;;;;;24.30;47.60;;;;;;1620259;73;674;-67
2021/12/13 11:19:42;;;;;;;;;;;24.30;47.60;;;;;;1613279;73;995;-68
2021/12/13 11:21:45;;;;;;;;;;;24.30;47.50;;;;;;1627440;73;743;-67
2021/12/13 11:23:47;;;;;;;;;;;24.30;47.50;;;;;;1623712;73;749;-67
2021/12/13 11:25:50;;;;;;;;;;;24.40;47.50;;;;;;1615019;73;1934;-67
2021/12/13 11:27:52;;;;;;;;;;;24.40;47.50;;;;;;1622791;73;1143;-70
2021/12/13 11:29:54;;;;;;;;;;;24.30;47.50;;;;;;1614417;73;757;-67
2021/12/13 11:32:00;;;;;;;;;;;24.30;47.50;;;;;;1620073;73;819;-69
2021/12/13 11:34:04;;;;;;;;;;;24.30;47.50;;;;;;1613805;73;1760;-67
2021/12/13 11:36:10;;;;;;;;;;;24.30;47.50;;;;;;1612083;73;777;-67
2021/12/13 11:38:20;;;;;;;;;;;24.30;47.50;;;;;;1624323;73;1165;-67
2021/12/13 11:40:22;;;;;;;;;;;24.30;47.50;;;;;;1625012;73;1615;-67
2021/12/13 11:42:34;;;;;;;;;;;24.30;47.50;;;;;;1627201;73;746;-66
2021/12/13 11:44:53;;;;;;;;;;;24.30;47.50;;;;;;1619895;73;1917;-68
2021/12/13 11:47:13;;;;;;;;;;;24.30;47.50;;;;;;1618162;73;1740;-68
2021/12/13 11:49:35;;;;;;;;;;;24.20;47.40;;;;;;1623594;73;1145;-67
2021/12/13 11:51:50;;;;;;;;;;;24.30;47.60;;;;;;1600136;71;1043;-68
2021/12/13 11:54:09;;;;;;;;;;;24.20;47.50;;;;;;1613719;73;1032;-67
2021/12/13 11:56:29;;;;;;;;;;;24.20;47.60;;;;;;1600725;73;1869;-67
2021/12/13 11:58:48;;;;;;;;;;;24.20;47.60;;;;;;1623715;73;1091;-68
2021/12/13 12:01:00;;;;;;;;;;;24.20;47.60;;;;;;1611949;71;1744;-66
2021/12/13 12:03:04;;;;;;;;;;;24.20;47.60;;;;;;1628837;73;748;-69
2021/12/13 12:05:13;;;;;;;;;;;24.20;47.50;;;;;;1623027;73;1929;-66
2021/12/13 12:07:17;;;;;;;;;;;24.20;47.60;;;;;;1613167;73;772;-68
2021/12/13 12:09:29;;;;;;;;;;;24.20;47.50;;;;;;1622145;73;1146;-69
2021/12/13 12:11:49;;;;;;;;;;;24.20;47.50;;;;;;1615940;73;1954;-68
2021/12/13 12:14:04;;;;;;;;;;;24.20;47.40;;;;;;1613694;71;828;-68
2021/12/13 12:16:03;;;;;;;;;;;24.20;47.40;;;;;;1622026;73;1606;-67
2021/12/13 12:18:06;;;;;;;;;;;24.20;47.40;;;;;;1613052;73;1137;-70
2021/12/13 12:20:09;;;;;;;;;;;24.20;47.40;;;;;;1620801;73;726;-68
2021/12/13 12:22:13;;;;;;;;;;;24.20;47.40;;;;;;1614763;73;772;-67
2021/12/13 12:24:19;;;;;;;;;;;24.20;47.30;;;;;;1607923;73;1674;-68
2021/12/13 12:26:21;;;;;;;;;;;24.20;47.30;;;;;;1607146;73;1939;-69
2021/12/13 12:28:22;;;;;;;;;;;24.20;47.30;;;;;;1614408;73;1075;-68
2021/12/13 12:30:26;;;;;;;;;;;24.20;47.30;;;;;;1623778;73;737;-69
2021/12/13 12:32:30;;;;;;;;;;;24.20;47.20;;;;;;1625905;73;726;-68